createdAt,value
2022-08-16T00:00:38.722Z,21.28
2022-08-16T00:03:13.378Z,21.13
2022-08-16T00:05:48.170Z,21.03
2022-08-16T00:08:30.642Z,20.97
2022-08-16T00:11:06.343Z,20.93
2022-08-16T00:13:41.667Z,20.91
2022-08-16T00:17:05.839Z,20.91
2022-08-16T00:19:01.540Z,20.89
2022-08-16T00:21:32.018Z,20.90
2022-08-16T00:24:04.665Z,20.87
2022-08-16T00:26:38.558Z,20.88
2022-08-16T00:29:16.945Z,20.92
2022-08-16T00:32:00.819Z,20.59
2022-08-16T00:34:44.088Z,20.57
2022-08-16T00:37:17.217Z,20.41
2022-08-16T00:39:58.396Z,20.24
2022-08-16T00:42:31.748Z,20.11
2022-08-16T00:45:09.251Z,19.99
2022-08-16T00:47:49.407Z,19.86
2022-08-16T00:50:21.555Z,19.74
2022-08-16T00:53:06.193Z,19.69
2022-08-16T00:55:38.326Z,19.64
2022-08-16T00:58:12.719Z,19.65
2022-08-16T01:00:54.034Z,19.57
2022-08-16T01:03:30.237Z,19.60
2022-08-16T01:06:40.340Z,19.68
2022-08-16T01:08:53.435Z,19.56
2022-08-16T01:11:25.349Z,19.62
2022-08-16T01:14:03.997Z,19.72
2022-08-16T01:16:36.139Z,19.51
2022-08-16T01:19:13.750Z,19.63
2022-08-16T01:21:51.071Z,19.63
2022-08-16T01:24:52.467Z,19.63
2022-08-16T01:27:18.581Z,19.45
2022-08-16T01:29:57.703Z,19.47
2022-08-16T01:32:31.937Z,19.41
2022-08-16T01:35:07.385Z,19.40
2022-08-16T01:37:42.729Z,19.42
2022-08-16T01:40:16.882Z,19.39
2022-08-16T01:42:48.192Z,19.38
2022-08-16T01:45:20.090Z,19.48
2022-08-16T01:47:52.283Z,19.39
2022-08-16T01:50:42.185Z,19.35
2022-08-16T01:53:14.228Z,19.36
2022-08-16T01:56:03.330Z,19.33
2022-08-16T01:58:35.063Z,19.32
2022-08-16T02:01:08.187Z,19.38
2022-08-16T02:03:38.113Z,19.36
2022-08-16T02:06:09.508Z,19.25
2022-08-16T02:08:38.556Z,19.31
2022-08-16T02:11:10.591Z,19.30
2022-08-16T02:13:41.915Z,19.23
2022-08-16T02:16:18.338Z,19.39
2022-08-16T02:18:48.449Z,19.36
2022-08-16T02:21:31.198Z,19.38
2022-08-16T02:24:01.816Z,19.34
2022-08-16T02:26:34.208Z,19.28
2022-08-16T02:29:03.930Z,19.14
2022-08-16T02:32:02.863Z,19.30
2022-08-16T02:34:32.744Z,19.26
2022-08-16T02:37:04.141Z,19.29
2022-08-16T02:39:35.052Z,19.21
2022-08-16T02:42:06.343Z,19.22
2022-08-16T02:44:36.178Z,19.18
2022-08-16T02:47:12.183Z,19.15
2022-08-16T02:50:03.207Z,19.04
2022-08-16T02:52:44.757Z,19.00
2022-08-16T02:55:19.890Z,18.86
2022-08-16T02:58:10.372Z,18.92
2022-08-16T03:00:45.613Z,18.93
2022-08-16T03:03:20.517Z,18.89
2022-08-16T03:05:52.563Z,18.92
2022-08-16T03:08:50.762Z,18.88
2022-08-16T03:11:21.807Z,18.82
2022-08-16T03:13:56.648Z,18.77
2022-08-16T03:16:38.374Z,18.78
2022-08-16T03:19:12.368Z,18.78
2022-08-16T03:21:41.540Z,18.70
2022-08-16T03:24:28.405Z,18.70
2022-08-16T03:27:01.785Z,18.66
2022-08-16T03:29:34.903Z,18.67
2022-08-16T03:32:07.377Z,18.59
2022-08-16T03:34:36.856Z,18.66
2022-08-16T03:37:06.729Z,18.72
2022-08-16T03:39:42.782Z,18.62
2022-08-16T03:42:20.456Z,18.66
2022-08-16T03:45:03.463Z,18.53
2022-08-16T03:47:36.148Z,18.57
2022-08-16T03:50:25.791Z,18.58
2022-08-16T03:53:04.118Z,18.52
2022-08-16T03:55:45.606Z,18.53
2022-08-16T03:58:15.855Z,18.49
2022-08-16T04:00:46.743Z,18.51
2022-08-16T04:03:26.083Z,18.57
2022-08-16T04:05:59.173Z,18.58
2022-08-16T04:08:31.082Z,18.46
2022-08-16T04:11:03.663Z,18.45
2022-08-16T04:14:00.856Z,18.54
2022-08-16T04:16:28.311Z,18.54
2022-08-16T04:19:31.805Z,18.48
2022-08-16T04:22:02.373Z,18.52
2022-08-16T04:24:54.803Z,18.52
2022-08-16T04:27:31.824Z,18.70
2022-08-16T04:30:03.772Z,18.61
2022-08-16T04:32:40.737Z,18.54
2022-08-16T04:35:17.417Z,18.57
2022-08-16T04:37:48.367Z,18.56
2022-08-16T04:40:28.025Z,18.65
2022-08-16T04:43:00.589Z,18.66
2022-08-16T04:45:35.864Z,18.71
2022-08-16T04:48:11.275Z,18.63
2022-08-16T04:50:59.234Z,18.79
2022-08-16T04:53:45.343Z,18.84
2022-08-16T04:56:17.093Z,18.89
2022-08-16T04:58:47.431Z,18.99
2022-08-16T05:01:19.644Z,18.89
2022-08-16T05:03:59.862Z,18.81
2022-08-16T05:06:44.780Z,18.83
2022-08-16T05:09:18.955Z,18.89
2022-08-16T05:11:52.862Z,18.96
2022-08-16T05:14:45.810Z,18.97
2022-08-16T05:17:19.748Z,19.04
2022-08-16T05:19:57.898Z,19.05
2022-08-16T05:22:30.175Z,18.96
2022-08-16T05:25:09.215Z,19.07
2022-08-16T05:27:43.367Z,19.09
2022-08-16T05:30:35.506Z,19.16
2022-08-16T05:33:16.875Z,19.22
2022-08-16T05:35:54.992Z,19.16
2022-08-16T05:38:57.424Z,19.29
2022-08-16T05:41:28.730Z,19.33
2022-08-16T05:44:00.298Z,19.30
2022-08-16T05:46:43.787Z,19.32
2022-08-16T05:49:22.196Z,19.37
2022-08-16T05:51:56.725Z,19.28
2022-08-16T05:54:29.060Z,19.30
2022-08-16T05:57:00.965Z,19.39
2022-08-16T05:59:31.541Z,19.42
2022-08-16T06:02:01.543Z,19.47
2022-08-16T06:04:37.435Z,19.55
2022-08-16T06:07:26.655Z,19.70
2022-08-16T06:10:32.086Z,19.67
2022-08-16T06:13:03.866Z,19.60
2022-08-16T06:15:33.877Z,19.59
2022-08-16T06:18:05.744Z,19.60
2022-08-16T06:20:55.039Z,19.71
2022-08-16T06:23:27.283Z,19.70
2022-08-16T06:26:07.377Z,19.65
2022-08-16T06:28:40.087Z,19.74
2022-08-16T06:31:16.786Z,19.73
2022-08-16T06:33:49.462Z,20.04
2022-08-16T06:36:21.979Z,19.99
2022-08-16T06:39:06.537Z,20.10
2022-08-16T06:42:07.960Z,20.08
2022-08-16T06:44:57.973Z,20.26
2022-08-16T06:47:53.725Z,20.49
2022-08-16T06:50:29.727Z,20.52
2022-08-16T06:53:08.397Z,20.58
2022-08-16T06:55:44.582Z,21.09
2022-08-16T06:58:21.976Z,21.05
2022-08-16T07:00:58.143Z,21.28
2022-08-16T07:03:32.462Z,21.14
2022-08-16T07:06:04.248Z,21.56
2022-08-16T07:08:38.964Z,21.48
2022-08-16T07:11:10.898Z,21.83
2022-08-16T07:14:01.923Z,21.87
2022-08-16T07:16:35.277Z,21.94
2022-08-16T07:19:04.681Z,22.72
2022-08-16T07:21:45.547Z,22.60
2022-08-16T07:24:29.519Z,22.74
2022-08-16T07:27:08.541Z,22.95
2022-08-16T07:29:43.491Z,22.99
2022-08-16T07:32:13.821Z,22.81
2022-08-16T07:34:48.297Z,23.26
2022-08-16T07:37:23.120Z,23.35
2022-08-16T07:40:11.537Z,23.58
2022-08-16T07:42:46.922Z,22.90
2022-08-16T07:45:16.979Z,22.96
2022-08-16T07:47:51.163Z,23.42
2022-08-16T07:50:57.851Z,23.02
2022-08-16T07:53:11.277Z,22.93
2022-08-16T07:55:47.614Z,23.41
2022-08-16T07:58:35.011Z,23.65
2022-08-16T08:01:10.969Z,24.59
2022-08-16T08:03:48.952Z,24.59
2022-08-16T08:06:25.109Z,24.53
2022-08-16T08:08:57.186Z,24.54
2022-08-16T08:11:28.568Z,24.13
2022-08-16T08:14:03.868Z,24.88
2022-08-16T08:16:45.466Z,25.64
2022-08-16T08:19:23.838Z,25.30
2022-08-16T08:22:01.212Z,25.93
2022-08-16T08:24:51.654Z,26.56
2022-08-16T08:27:23.626Z,25.52
2022-08-16T08:30:49.205Z,25.95
2022-08-16T08:32:59.473Z,26.97
2022-08-16T08:35:34.397Z,27.41
2022-08-16T08:38:08.810Z,25.53
2022-08-16T08:40:44.825Z,25.96
2022-08-16T08:43:18.269Z,25.74
2022-08-16T08:46:00.506Z,26.94
2022-08-16T08:48:34.805Z,26.73
2022-08-16T08:51:11.672Z,25.48
2022-08-16T08:54:09.154Z,26.07
2022-08-16T08:56:45.492Z,25.22
2022-08-16T08:59:41.707Z,25.99
2022-08-16T09:02:19.567Z,26.34
2022-08-16T09:04:53.810Z,25.87
2022-08-16T09:07:26.324Z,26.37
2022-08-16T09:10:06.099Z,26.93
2022-08-16T09:12:37.615Z,25.99
2022-08-16T09:15:13.912Z,25.91
2022-08-16T09:17:51.573Z,25.63
2022-08-16T09:20:25.588Z,26.50
2022-08-16T09:22:56.058Z,27.01
2022-08-16T09:25:34.450Z,26.93
2022-08-16T09:28:11.555Z,26.08
2022-08-16T09:30:47.442Z,25.99
2022-08-16T09:33:21.318Z,26.40
2022-08-16T09:35:53.642Z,26.36
2022-08-16T09:38:31.802Z,27.18
2022-08-16T09:41:02.919Z,26.53
2022-08-16T09:43:58.106Z,27.50
2022-08-16T09:46:44.342Z,27.05
2022-08-16T09:49:14.727Z,26.27
2022-08-16T09:51:45.079Z,25.84
2022-08-16T09:54:17.046Z,26.92
2022-08-16T09:56:53.300Z,27.08
2022-08-16T09:59:25.276Z,27.43
2022-08-16T10:01:56.902Z,27.28
2022-08-16T10:04:38.951Z,27.05
2022-08-16T10:07:19.299Z,26.89
2022-08-16T10:09:54.834Z,27.78
2022-08-16T10:12:44.626Z,27.52
2022-08-16T10:15:17.413Z,27.72
2022-08-16T10:18:01.433Z,27.44
2022-08-16T10:20:35.481Z,28.68
2022-08-16T10:23:09.802Z,28.53
2022-08-16T10:27:18.202Z,28.22
2022-08-16T10:28:32.207Z,28.03
2022-08-16T10:31:14.668Z,28.80
2022-08-16T10:33:58.959Z,28.56
2022-08-16T10:36:39.132Z,28.69
2022-08-16T10:39:09.703Z,28.00
2022-08-16T10:41:38.737Z,29.21
2022-08-16T10:44:09.576Z,27.60
2022-08-16T10:46:41.785Z,28.38
2022-08-16T10:49:12.977Z,29.66
2022-08-16T10:52:02.977Z,28.66
2022-08-16T10:54:58.392Z,28.10
2022-08-16T10:57:25.705Z,27.62
2022-08-16T11:00:04.770Z,27.77
2022-08-16T11:02:57.740Z,29.40
2022-08-16T11:05:23.452Z,28.49
2022-08-16T11:07:54.134Z,27.59
2022-08-16T11:13:58.374Z,27.12
2022-08-16T11:19:03.481Z,28.37
2022-08-16T11:21:37.467Z,28.81
2022-08-16T11:24:42.511Z,26.87
2022-08-16T11:27:19.640Z,27.46
2022-08-16T11:29:51.955Z,28.56
2022-08-16T11:32:22.632Z,28.64
2022-08-16T11:35:10.438Z,27.66
2022-08-16T11:40:46.890Z,27.01
2022-08-16T11:43:26.367Z,26.59
2022-08-16T11:45:58.305Z,26.61
2022-08-16T11:48:33.421Z,26.48
2022-08-16T11:51:03.249Z,26.27
2022-08-16T11:53:35.723Z,26.63
2022-08-16T11:56:07.028Z,27.16
2022-08-16T11:58:39.491Z,27.93
2022-08-16T12:01:11.043Z,27.29
2022-08-16T12:03:41.783Z,27.21
2022-08-16T12:06:24.962Z,27.14
2022-08-16T12:09:02.064Z,26.70
2022-08-16T12:11:33.408Z,26.76
2022-08-16T12:14:04.220Z,26.84
2022-08-16T12:16:34.985Z,26.68
2022-08-16T12:19:05.329Z,26.55
2022-08-16T12:21:36.160Z,26.65
2022-08-16T12:24:24.313Z,26.56
2022-08-16T12:26:55.388Z,26.66
2022-08-16T12:29:25.917Z,26.65
2022-08-16T12:32:12.224Z,26.70
2022-08-16T12:34:52.834Z,26.53
2022-08-16T12:37:24.417Z,26.51
2022-08-16T12:39:55.878Z,26.44
2022-08-16T12:42:35.578Z,25.75
2022-08-16T12:45:07.409Z,25.01
2022-08-16T12:48:09.918Z,24.96
2022-08-16T12:50:43.939Z,25.06
2022-08-16T12:53:20.544Z,26.72
2022-08-16T12:55:50.678Z,26.82
2022-08-16T12:58:50.566Z,26.51
2022-08-16T13:01:13.044Z,25.99
2022-08-16T13:03:45.234Z,25.77
2022-08-16T13:06:20.203Z,25.47
2022-08-16T13:09:02.274Z,27.00
2022-08-16T13:11:37.813Z,28.94
2022-08-16T13:14:08.344Z,27.47
2022-08-16T13:16:48.587Z,28.30
2022-08-16T13:19:18.332Z,28.67
2022-08-16T13:21:49.976Z,28.77
2022-08-16T13:24:19.889Z,29.39
2022-08-16T13:26:53.138Z,29.46
2022-08-16T13:29:23.933Z,27.51
2022-08-16T13:31:53.195Z,28.96
2022-08-16T13:34:25.129Z,28.68
2022-08-16T13:36:54.715Z,29.28
2022-08-16T13:39:26.166Z,30.45
2022-08-16T13:41:55.739Z,30.00
2022-08-16T13:44:48.904Z,30.22
2022-08-16T13:47:15.610Z,29.67
2022-08-16T13:49:46.381Z,29.01
2022-08-16T13:52:15.470Z,29.71
2022-08-16T13:54:44.727Z,29.19
2022-08-16T13:57:14.532Z,29.10
2022-08-16T13:59:46.171Z,29.20
2022-08-16T14:02:19.489Z,29.21
2022-08-16T14:05:05.285Z,29.54
2022-08-16T14:07:35.352Z,30.62
2022-08-16T14:10:12.753Z,29.74
2022-08-16T14:12:44.836Z,30.59
2022-08-16T14:15:17.386Z,31.25
2022-08-16T14:18:15.454Z,30.35
2022-08-16T14:20:35.969Z,30.75
2022-08-16T14:23:07.732Z,30.60
2022-08-16T14:25:37.212Z,31.25
2022-08-16T14:28:06.484Z,30.46
2022-08-16T14:30:40.676Z,30.73
2022-08-16T14:33:10.515Z,29.41
2022-08-16T14:35:49.306Z,28.76
2022-08-16T14:38:23.667Z,30.06
2022-08-16T14:40:55.368Z,30.55
2022-08-16T14:43:26.055Z,30.14
2022-08-16T14:46:00.628Z,28.62
2022-08-16T14:48:30.944Z,29.89
2022-08-16T14:51:00.566Z,30.23
2022-08-16T14:53:32.705Z,29.25
2022-08-16T14:56:02.508Z,29.64
2022-08-16T14:58:36.762Z,29.80
2022-08-16T15:01:09.790Z,29.04
2022-08-16T15:03:42.311Z,29.56
2022-08-16T15:06:14.582Z,29.90
2022-08-16T15:08:45.820Z,29.81
2022-08-16T15:11:15.180Z,29.11
2022-08-16T15:13:46.866Z,28.66
2022-08-16T15:16:17.905Z,29.41
2022-08-16T15:18:47.382Z,28.82
2022-08-16T15:21:16.683Z,28.30
2022-08-16T15:23:45.849Z,28.43
2022-08-16T15:26:29.583Z,28.48
2022-08-16T15:29:05.674Z,29.54
2022-08-16T15:31:41.380Z,29.59
2022-08-16T15:34:13.008Z,30.10
2022-08-16T15:36:48.696Z,29.18
2022-08-16T15:39:31.728Z,29.60
2022-08-16T15:42:11.249Z,29.67
2022-08-16T15:44:52.016Z,30.04
2022-08-16T15:47:26.970Z,30.02
2022-08-16T15:49:57.820Z,30.19
2022-08-16T15:52:31.186Z,29.69
2022-08-16T15:55:13.192Z,29.87
2022-08-16T15:57:51.339Z,29.35
2022-08-16T16:00:21.056Z,29.69
2022-08-16T16:03:02.046Z,29.47
2022-08-16T16:05:32.468Z,29.26
2022-08-16T16:08:11.066Z,29.82
2022-08-16T16:10:44.535Z,30.12
2022-08-16T16:13:24.576Z,29.61
2022-08-16T16:15:55.971Z,29.88
2022-08-16T16:18:29.890Z,29.59
2022-08-16T16:21:01.290Z,29.92
2022-08-16T16:23:32.715Z,28.99
2022-08-16T16:26:05.789Z,29.04
2022-08-16T16:29:05.339Z,29.04
2022-08-16T16:31:26.859Z,29.42
2022-08-16T16:34:00.426Z,29.38
2022-08-16T16:36:33.235Z,29.20
2022-08-16T16:39:03.669Z,29.44
2022-08-16T16:41:32.785Z,28.99
2022-08-16T16:44:03.171Z,28.43
2022-08-16T16:46:43.126Z,28.38
2022-08-16T16:49:15.728Z,28.12
2022-08-16T16:51:49.930Z,28.00
2022-08-16T16:54:27.507Z,27.73
2022-08-16T16:56:58.619Z,27.65
2022-08-16T16:59:28.311Z,27.65
2022-08-16T17:02:38.871Z,28.09
2022-08-16T17:04:50.848Z,28.02
2022-08-16T17:07:20.630Z,27.94
2022-08-16T17:09:53.881Z,27.94
2022-08-16T17:12:24.962Z,28.19
2022-08-16T17:14:59.029Z,28.24
2022-08-16T17:17:29.618Z,27.65
2022-08-16T17:20:00.462Z,27.38
2022-08-16T17:22:32.901Z,27.42
2022-08-16T17:25:03.380Z,27.13
2022-08-16T17:27:37.403Z,27.07
2022-08-16T17:30:16.536Z,27.00
2022-08-16T17:32:54.356Z,26.94
2022-08-16T17:35:34.106Z,26.83
2022-08-16T17:38:06.207Z,26.76
2022-08-16T17:40:46.626Z,26.63
2022-08-16T17:43:28.359Z,26.56
2022-08-16T17:45:58.451Z,26.53
2022-08-16T17:48:28.071Z,26.46
2022-08-16T17:50:59.028Z,26.44
2022-08-16T17:53:28.378Z,26.36
2022-08-16T17:55:57.726Z,26.20
2022-08-16T17:58:27.172Z,26.00
2022-08-16T18:00:59.612Z,25.85
2022-08-16T18:04:02.507Z,25.43
2022-08-16T18:06:23.502Z,25.32
2022-08-16T18:09:00.307Z,25.26
2022-08-16T18:11:33.740Z,25.15
2022-08-16T18:14:03.812Z,25.14
2022-08-16T18:16:33.228Z,25.07
2022-08-16T18:19:02.506Z,25.03
2022-08-16T18:21:50.544Z,25.08
2022-08-16T18:24:20.502Z,25.05
2022-08-16T18:26:49.699Z,25.04
2022-08-16T18:29:20.728Z,25.03
2022-08-16T18:31:54.243Z,24.90
2022-08-16T18:34:23.974Z,24.88
2022-08-16T18:36:56.017Z,24.91
2022-08-16T18:39:27.664Z,24.99
2022-08-16T18:41:59.293Z,24.91
2022-08-16T18:44:34.996Z,24.86
2022-08-16T18:47:07.968Z,24.72
2022-08-16T18:49:38.096Z,24.68
2022-08-16T18:52:08.931Z,24.73
2022-08-16T18:55:01.612Z,24.67
2022-08-16T18:57:29.081Z,24.63
2022-08-16T19:00:00.844Z,24.53
2022-08-16T19:02:57.355Z,24.35
2022-08-16T19:05:24.919Z,24.31
2022-08-16T19:07:55.474Z,24.39
2022-08-16T19:10:24.958Z,24.36
2022-08-16T19:12:54.583Z,24.34
2022-08-16T19:15:29.775Z,24.09
2022-08-16T19:17:59.784Z,24.01
2022-08-16T19:20:31.435Z,24.09
2022-08-16T19:23:10.276Z,24.04
2022-08-16T19:25:49.438Z,23.94
2022-08-16T19:28:49.914Z,23.87
2022-08-16T19:31:16.329Z,23.80
2022-08-16T19:33:53.682Z,23.67
2022-08-16T19:36:33.749Z,23.65
2022-08-16T19:39:08.667Z,23.58
2022-08-16T19:41:40.161Z,23.60
2022-08-16T19:44:10.364Z,23.56
2022-08-16T19:46:43.393Z,23.56
2022-08-16T19:49:15.715Z,23.48
2022-08-16T19:51:46.272Z,23.30
2022-08-16T19:54:17.840Z,23.20
2022-08-16T19:56:47.095Z,23.17
2022-08-16T19:59:20.444Z,23.18
2022-08-16T20:01:52.441Z,23.07
2022-08-16T20:04:23.136Z,23.09
2022-08-16T20:06:52.998Z,23.10
2022-08-16T20:09:25.101Z,23.06
2022-08-16T20:11:55.850Z,23.04
2022-08-16T20:14:26.625Z,23.06
2022-08-16T20:16:57.793Z,22.97
2022-08-16T20:19:28.021Z,23.07
2022-08-16T20:22:01.866Z,22.97
2022-08-16T20:24:35.524Z,22.99
2022-08-16T20:27:09.752Z,22.81
2022-08-16T20:29:46.583Z,22.80
2022-08-16T20:32:22.667Z,22.72
2022-08-16T20:34:59.302Z,22.66
2022-08-16T20:37:28.767Z,22.62
2022-08-16T20:40:28.405Z,22.58
2022-08-16T20:43:01.166Z,22.48
2022-08-16T20:45:31.153Z,22.36
2022-08-16T20:48:00.682Z,22.34
2022-08-16T20:50:29.915Z,22.26
2022-08-16T20:52:59.640Z,22.28
2022-08-16T20:55:31.423Z,22.34
2022-08-16T20:58:01.364Z,22.29
2022-08-16T21:00:32.328Z,22.29
2022-08-16T21:03:01.527Z,22.23
2022-08-16T21:05:34.121Z,22.24
2022-08-16T21:08:27.926Z,22.09
2022-08-16T21:10:54.505Z,22.00
2022-08-16T21:13:25.369Z,21.93
2022-08-16T21:15:55.013Z,21.90
2022-08-16T21:18:24.129Z,21.88
2022-08-16T21:20:53.547Z,21.81
2022-08-16T21:23:23.104Z,21.75
2022-08-16T21:25:58.817Z,21.75
2022-08-16T21:28:38.845Z,21.81
2022-08-16T21:31:12.254Z,21.74
2022-08-16T21:33:42.550Z,21.67
2022-08-16T21:36:12.530Z,21.50
2022-08-16T21:38:41.826Z,21.31
2022-08-16T21:41:13.015Z,21.17
2022-08-16T21:43:42.174Z,21.02
2022-08-16T21:46:11.378Z,20.94
2022-08-16T21:48:40.882Z,20.80
2022-08-16T21:51:13.421Z,20.64
2022-08-16T21:53:43.657Z,20.45
2022-08-16T21:56:17.122Z,20.56
2022-08-16T21:58:46.804Z,20.52
2022-08-16T22:01:22.673Z,20.50
2022-08-16T22:04:36.203Z,20.55
2022-08-16T22:06:42.862Z,20.56
2022-08-16T22:09:15.125Z,20.49
2022-08-16T22:11:45.871Z,20.40
2022-08-16T22:14:14.937Z,20.35
2022-08-16T22:16:44.023Z,20.26
2022-08-16T22:19:13.649Z,20.33
2022-08-16T22:21:42.903Z,20.27
2022-08-16T22:24:12.029Z,20.23
2022-08-16T22:26:43.258Z,20.22
2022-08-16T22:29:15.479Z,20.22
2022-08-16T22:31:44.961Z,20.34
2022-08-16T22:34:14.842Z,20.31
2022-08-16T22:36:44.703Z,20.28
2022-08-16T22:39:15.332Z,20.32
2022-08-16T22:41:45.735Z,20.34
2022-08-16T22:44:16.598Z,20.41
2022-08-16T22:46:45.967Z,20.37
2022-08-16T22:49:15.361Z,20.34
2022-08-16T22:51:44.514Z,20.36
2022-08-16T22:54:41.422Z,20.25
2022-08-16T22:57:03.082Z,20.11
2022-08-16T22:59:33.998Z,20.14
2022-08-16T23:02:07.007Z,20.11
2022-08-16T23:04:36.512Z,20.09
2022-08-16T23:07:06.624Z,20.14
2022-08-16T23:09:36.674Z,20.07
2022-08-16T23:12:07.255Z,19.46
2022-08-16T23:14:37.920Z,19.44
2022-08-16T23:17:07.628Z,19.28
2022-08-16T23:19:37.680Z,19.12
2022-08-16T23:22:07.056Z,18.98
2022-08-16T23:24:38.230Z,19.07
2022-08-16T23:27:25.714Z,18.95
2022-08-16T23:29:56.962Z,19.09
2022-08-16T23:32:25.983Z,18.78
2022-08-16T23:34:55.119Z,18.60
2022-08-16T23:37:27.421Z,18.52
2022-08-16T23:39:56.795Z,18.51
2022-08-16T23:42:44.730Z,18.36
2022-08-16T23:45:18.292Z,18.27
2022-08-16T23:47:47.570Z,18.37
2022-08-16T23:50:17.337Z,18.61
2022-08-16T23:52:59.793Z,18.66
2022-08-16T23:55:31.001Z,18.64
2022-08-16T23:58:00.256Z,18.50
